Terminal Aerodrome Forecast
Issued by NWS Chicago, IL

Home | Current Version | Previous Version | Text Only | Print | Product List | Glossary Off
Versions: 1 2 3 4 5 6 7 8 9 10 11 12 13 14 15 16 17 18 19 20 21 22 23 24 25

493
FTUS43 KLOT 220655 AAA
TAFRFD
TAF AMD
KRFD 220655Z 2207/2306 VRB05KT 1 1/2SM BR OVC003
      TEMPO 2209/2213 1/2SM FG VV001
     FM221500 33007KT P6SM BKN015
     FM222100 34009KT P6SM BKN023
     FM230000 02004KT P6SM SCT020
     FM230400 10004KT 6SM BR FEW250=

USA.gov is the U.S. government's official web portal to all federal, state and local government web resources and services.